ECO262 SLCB-SLVR
Flight info
| Callsign | ECO262 |
|---|---|
| Flight time | 0h 40m |
| Altitude | 25000 |
| Route | VAREB UW677 SANSO |
| Aircraft | RJ85/M-SDFGIRWY/LB1 |
Departure
| Time | 2026-04-26 13:10 |
|---|---|
| Airport | Jorge Wilsterman International Airport (SLCB) |
Arrival
| Time | 2026-04-26 13:51 |
|---|---|
| Airport | Viru Viru International Airport (SLVR) |
| Time | Latitude | Longitude | Altitude | Speed | Heading |
|---|---|---|---|---|---|
| 2026-04-26 12:55 | -17.41485 | -66.17948 | 8406 ft | 0 kts | 42° |
| 2026-04-26 12:56 | -17.41495 | -66.17958 | 8406 ft | 2 kts | 44° |
| 2026-04-26 12:56 | -17.41506 | -66.17970 | 8406 ft | 2 kts | 49° |
| 2026-04-26 12:56 | -17.41516 | -66.17984 | 8406 ft | 2 kts | 60° |
| 2026-04-26 12:56 | -17.41521 | -66.17999 | 8406 ft | 2 kts | 87° |
| 2026-04-26 12:57 | -17.41517 | -66.18012 | 8406 ft | 2 kts | 131° |
| 2026-04-26 12:57 | -17.41515 | -66.18014 | 8406 ft | 0 kts | 131° |
| 2026-04-26 12:59 | -17.41515 | -66.18013 | 8406 ft | 0 kts | 131° |
| 2026-04-26 12:59 | -17.41516 | -66.18013 | 8406 ft | 0 kts | 131° |
| 2026-04-26 13:00 | -17.41523 | -66.18005 | 8406 ft | 3 kts | 131° |
| 2026-04-26 13:00 | -17.41543 | -66.17980 | 8406 ft | 6 kts | 131° |
| 2026-04-26 13:00 | -17.41576 | -66.17941 | 8406 ft | 7 kts | 131° |
| 2026-04-26 13:01 | -17.41603 | -66.17914 | 8406 ft | 5 kts | 165° |
| 2026-04-26 13:01 | -17.41643 | -66.17921 | 8406 ft | 7 kts | 200° |
| 2026-04-26 13:01 | -17.41698 | -66.17925 | 8406 ft | 9 kts | 146° |
| 2026-04-26 13:01 | -17.41749 | -66.17871 | 8406 ft | 12 kts | 132° |
| 2026-04-26 13:02 | -17.41809 | -66.17800 | 8406 ft | 14 kts | 132° |
| 2026-04-26 13:02 | -17.41869 | -66.17731 | 8406 ft | 13 kts | 132° |
| 2026-04-26 13:02 | -17.41924 | -66.17667 | 8406 ft | 13 kts | 132° |
| 2026-04-26 13:02 | -17.41989 | -66.17592 | 8406 ft | 15 kts | 132° |
| 2026-04-26 13:03 | -17.42054 | -66.17516 | 8406 ft | 15 kts | 132° |
| 2026-04-26 13:03 | -17.42118 | -66.17441 | 8406 ft | 13 kts | 131° |
| 2026-04-26 13:03 | -17.42184 | -66.17363 | 8406 ft | 15 kts | 131° |
| 2026-04-26 13:03 | -17.42258 | -66.17277 | 8406 ft | 17 kts | 132° |
| 2026-04-26 13:04 | -17.42345 | -66.17178 | 8406 ft | 19 kts | 132° |
| 2026-04-26 13:04 | -17.42437 | -66.17072 | 8406 ft | 11 kts | 132° |
| 2026-04-26 13:04 | -17.42446 | -66.17061 | 8406 ft | 6 kts | 132° |
| 2026-04-26 13:05 | -17.42450 | -66.17057 | 8406 ft | 6 kts | 132° |
| 2026-04-26 13:05 | -17.42484 | -66.17017 | 8406 ft | 9 kts | 132° |
| 2026-04-26 13:05 | -17.42531 | -66.16985 | 8406 ft | 8 kts | 187° |
| 2026-04-26 13:06 | -17.42568 | -66.17010 | 8406 ft | 7 kts | 218° |
| 2026-04-26 13:06 | -17.42610 | -66.17043 | 8406 ft | 8 kts | 211° |
| 2026-04-26 13:06 | -17.42656 | -66.17058 | 8406 ft | 6 kts | 185° |
| 2026-04-26 13:06 | -17.42658 | -66.17058 | 8406 ft | 0 kts | 183° |
| 2026-04-26 13:07 | -17.42662 | -66.17058 | 8406 ft | 2 kts | 177° |
| 2026-04-26 13:07 | -17.42708 | -66.17021 | 8406 ft | 14 kts | 131° |
| 2026-04-26 13:07 | -17.42787 | -66.16929 | 8406 ft | 19 kts | 132° |
| 2026-04-26 13:08 | -17.42887 | -66.16813 | 8406 ft | 23 kts | 132° |
| 2026-04-26 13:08 | -17.42997 | -66.16684 | 8406 ft | 21 kts | 131° |
| 2026-04-26 13:08 | -17.43087 | -66.16581 | 8406 ft | 18 kts | 133° |
| 2026-04-26 13:08 | -17.43145 | -66.16485 | 8406 ft | 12 kts | 108° |
| 2026-04-26 13:09 | -17.43162 | -66.16447 | 8406 ft | 1 kts | 183° |
| 2026-04-26 13:09 | -17.43169 | -66.16451 | 8406 ft | 3 kts | 228° |
| 2026-04-26 13:09 | -17.43172 | -66.16479 | 8406 ft | 5 kts | 304° |
| 2026-04-26 13:09 | -17.43132 | -66.16528 | 8406 ft | 14 kts | 312° |
| 2026-04-26 13:10 | -17.42969 | -66.16715 | 8406 ft | 61 kts | 313° |
| 2026-04-26 13:10 | -17.42559 | -66.17194 | 8406 ft | 114 kts | 313° |
| 2026-04-26 13:10 | -17.41917 | -66.17937 | 8428 ft | 157 kts | 313° |
| 2026-04-26 13:10 | -17.41198 | -66.18816 | 8967 ft | 158 kts | 310° |
| 2026-04-26 13:11 | -17.40492 | -66.19706 | 9614 ft | 161 kts | 310° |
| 2026-04-26 13:11 | -17.39769 | -66.20625 | 10196 ft | 166 kts | 310° |
| 2026-04-26 13:11 | -17.38983 | -66.21551 | 10759 ft | 173 kts | 314° |
| 2026-04-26 13:11 | -17.38170 | -66.22507 | 11304 ft | 183 kts | 300° |
| 2026-04-26 13:12 | -17.37923 | -66.23869 | 11677 ft | 203 kts | 264° |
| 2026-04-26 13:12 | -17.38497 | -66.25261 | 12035 ft | 226 kts | 232° |
| 2026-04-26 13:12 | -17.39822 | -66.26258 | 12442 ft | 248 kts | 201° |
| 2026-04-26 13:12 | -17.41602 | -66.26501 | 12844 ft | 272 kts | 175° |
| 2026-04-26 13:13 | -17.43453 | -66.25848 | 13322 ft | 293 kts | 150° |
| 2026-04-26 13:13 | -17.44946 | -66.24366 | 14003 ft | 299 kts | 123° |
| 2026-04-26 13:13 | -17.45722 | -66.22400 | 15044 ft | 292 kts | 103° |
| 2026-04-26 13:13 | -17.46033 | -66.20288 | 15754 ft | 296 kts | 94° |
| 2026-04-26 13:14 | -17.46113 | -66.18117 | 16469 ft | 299 kts | 90° |
| 2026-04-26 13:14 | -17.46088 | -66.15919 | 17175 ft | 302 kts | 88° |
| 2026-04-26 13:14 | -17.46038 | -66.13708 | 17857 ft | 306 kts | 88° |
| 2026-04-26 13:14 | -17.45986 | -66.11485 | 18513 ft | 309 kts | 88° |
| 2026-04-26 13:15 | -17.45950 | -66.09209 | 19151 ft | 312 kts | 89° |
| 2026-04-26 13:15 | -17.45923 | -66.06928 | 19767 ft | 315 kts | 89° |
| 2026-04-26 13:15 | -17.45917 | -66.04620 | 20366 ft | 318 kts | 89° |
| 2026-04-26 13:15 | -17.45922 | -66.03076 | 20738 ft | 321 kts | 89° |
| 2026-04-26 13:16 | -17.45943 | -65.99931 | 21474 ft | 325 kts | 90° |
| 2026-04-26 13:16 | -17.45962 | -65.97548 | 22005 ft | 328 kts | 90° |
| 2026-04-26 13:16 | -17.45984 | -65.95136 | 22497 ft | 332 kts | 90° |
| 2026-04-26 13:16 | -17.46005 | -65.92707 | 22969 ft | 335 kts | 90° |
| 2026-04-26 13:17 | -17.46051 | -65.87783 | 23868 ft | 341 kts | 90° |
| 2026-04-26 13:17 | -17.46085 | -65.85282 | 24299 ft | 344 kts | 90° |
| 2026-04-26 13:18 | -17.46145 | -65.80204 | 24889 ft | 358 kts | 90° |
| 2026-04-26 13:18 | -17.46178 | -65.77548 | 24982 ft | 369 kts | 90° |
| 2026-04-26 13:18 | -17.46248 | -65.71951 | 25006 ft | 398 kts | 90° |
| 2026-04-26 13:19 | -17.46282 | -65.69048 | 25005 ft | 409 kts | 90° |
| 2026-04-26 13:19 | -17.46321 | -65.66029 | 25003 ft | 417 kts | 90° |
| 2026-04-26 13:19 | -17.46355 | -65.62937 | 25002 ft | 422 kts | 90° |
| 2026-04-26 13:19 | -17.46391 | -65.59861 | 25001 ft | 424 kts | 90° |
| 2026-04-26 13:20 | -17.46435 | -65.56765 | 25001 ft | 426 kts | 90° |
| 2026-04-26 13:20 | -17.46529 | -65.53662 | 25001 ft | 426 kts | 91° |
| 2026-04-26 13:20 | -17.46677 | -65.50562 | 25001 ft | 427 kts | 92° |
| 2026-04-26 13:20 | -17.46856 | -65.47453 | 25001 ft | 427 kts | 93° |
| 2026-04-26 13:21 | -17.47046 | -65.44401 | 25002 ft | 427 kts | 93° |
| 2026-04-26 13:21 | -17.47188 | -65.42310 | 25001 ft | 427 kts | 94° |
| 2026-04-26 13:21 | -17.47484 | -65.38204 | 25001 ft | 426 kts | 94° |
| 2026-04-26 13:21 | -17.47715 | -65.35063 | 25000 ft | 426 kts | 94° |
| 2026-04-26 13:22 | -17.47934 | -65.31970 | 25000 ft | 426 kts | 93° |
| 2026-04-26 13:22 | -17.48145 | -65.28872 | 25000 ft | 426 kts | 93° |
| 2026-04-26 13:22 | -17.48356 | -65.25776 | 25000 ft | 426 kts | 94° |
| 2026-04-26 13:22 | -17.48581 | -65.22719 | 25000 ft | 426 kts | 94° |
| 2026-04-26 13:23 | -17.48799 | -65.19582 | 25000 ft | 426 kts | 93° |
| 2026-04-26 13:23 | -17.49002 | -65.16531 | 25000 ft | 426 kts | 93° |
| 2026-04-26 13:23 | -17.49220 | -65.13431 | 25000 ft | 426 kts | 93° |
| 2026-04-26 13:23 | -17.49438 | -65.10338 | 25000 ft | 426 kts | 94° |
| 2026-04-26 13:24 | -17.49645 | -65.07238 | 25000 ft | 426 kts | 93° |
| 2026-04-26 13:24 | -17.49857 | -65.04142 | 25000 ft | 426 kts | 94° |
| 2026-04-26 13:24 | -17.50077 | -65.01049 | 25000 ft | 426 kts | 93° |
| 2026-04-26 13:24 | -17.50289 | -64.97945 | 25000 ft | 426 kts | 93° |
| 2026-04-26 13:25 | -17.50493 | -64.94853 | 25000 ft | 426 kts | 93° |
| 2026-04-26 13:25 | -17.50711 | -64.91751 | 25000 ft | 426 kts | 94° |
| 2026-04-26 13:25 | -17.50924 | -64.88651 | 25000 ft | 426 kts | 93° |
| 2026-04-26 13:25 | -17.51134 | -64.85555 | 25000 ft | 426 kts | 94° |
| 2026-04-26 13:26 | -17.51337 | -64.82456 | 25000 ft | 426 kts | 93° |
| 2026-04-26 13:26 | -17.51544 | -64.79361 | 25000 ft | 426 kts | 93° |
| 2026-04-26 13:26 | -17.51761 | -64.76254 | 25000 ft | 426 kts | 94° |
| 2026-04-26 13:26 | -17.51975 | -64.73157 | 25000 ft | 426 kts | 93° |
| 2026-04-26 13:27 | -17.52172 | -64.70059 | 25000 ft | 426 kts | 93° |
| 2026-04-26 13:27 | -17.52376 | -64.66955 | 25000 ft | 427 kts | 93° |
| 2026-04-26 13:27 | -17.52591 | -64.63847 | 25000 ft | 427 kts | 94° |
| 2026-04-26 13:27 | -17.52808 | -64.60735 | 25000 ft | 427 kts | 93° |
| 2026-04-26 13:28 | -17.53009 | -64.57640 | 25000 ft | 427 kts | 94° |
| 2026-04-26 13:28 | -17.53201 | -64.55579 | 25000 ft | 427 kts | 96° |
| 2026-04-26 13:28 | -17.53631 | -64.52501 | 25001 ft | 428 kts | 99° |
| 2026-04-26 13:28 | -17.54204 | -64.49438 | 25002 ft | 428 kts | 102° |
| 2026-04-26 13:29 | -17.54873 | -64.46406 | 25002 ft | 428 kts | 103° |
| 2026-04-26 13:29 | -17.55610 | -64.43377 | 25002 ft | 428 kts | 104° |
| 2026-04-26 13:29 | -17.56381 | -64.40367 | 25001 ft | 428 kts | 104° |
| 2026-04-26 13:29 | -17.57155 | -64.37347 | 25001 ft | 428 kts | 104° |
| 2026-04-26 13:30 | -17.57925 | -64.34338 | 25000 ft | 428 kts | 104° |
| 2026-04-26 13:30 | -17.58695 | -64.31318 | 25007 ft | 429 kts | 104° |
| 2026-04-26 13:30 | -17.59460 | -64.28298 | 25013 ft | 430 kts | 104° |
| 2026-04-26 13:30 | -17.60206 | -64.25262 | 25015 ft | 431 kts | 104° |
| 2026-04-26 13:31 | -17.60940 | -64.22215 | 25016 ft | 432 kts | 103° |
| 2026-04-26 13:31 | -17.61669 | -64.19151 | 24975 ft | 433 kts | 103° |
| 2026-04-26 13:31 | -17.62409 | -64.16084 | 24599 ft | 434 kts | 104° |
| 2026-04-26 13:31 | -17.63161 | -64.13030 | 24081 ft | 430 kts | 104° |
| 2026-04-26 13:32 | -17.63890 | -64.10028 | 23538 ft | 422 kts | 103° |
| 2026-04-26 13:32 | -17.64597 | -64.07082 | 22999 ft | 410 kts | 104° |
| 2026-04-26 13:32 | -17.65289 | -64.04228 | 22471 ft | 397 kts | 103° |
| 2026-04-26 13:32 | -17.65952 | -64.01475 | 21963 ft | 383 kts | 104° |
| 2026-04-26 13:33 | -17.66599 | -63.98815 | 21472 ft | 370 kts | 104° |
| 2026-04-26 13:33 | -17.67216 | -63.96243 | 20997 ft | 358 kts | 104° |
| 2026-04-26 13:33 | -17.67819 | -63.93759 | 20540 ft | 347 kts | 104° |
| 2026-04-26 13:33 | -17.68403 | -63.91334 | 20095 ft | 338 kts | 104° |
| 2026-04-26 13:34 | -17.68975 | -63.88973 | 19664 ft | 330 kts | 103° |
| 2026-04-26 13:34 | -17.69529 | -63.86670 | 19240 ft | 322 kts | 103° |
| 2026-04-26 13:34 | -17.70077 | -63.84409 | 18832 ft | 316 kts | 103° |
| 2026-04-26 13:34 | -17.70432 | -63.82932 | 18565 ft | 315 kts | 103° |
| 2026-04-26 13:35 | -17.71142 | -63.79975 | 18029 ft | 311 kts | 103° |
| 2026-04-26 13:35 | -17.71673 | -63.77780 | 17627 ft | 309 kts | 103° |
| 2026-04-26 13:35 | -17.72201 | -63.75606 | 17226 ft | 307 kts | 103° |
| 2026-04-26 13:35 | -17.72722 | -63.73444 | 16826 ft | 306 kts | 103° |
| 2026-04-26 13:36 | -17.73242 | -63.71291 | 16442 ft | 303 kts | 103° |
| 2026-04-26 13:36 | -17.73763 | -63.69153 | 16065 ft | 302 kts | 103° |
| 2026-04-26 13:36 | -17.74285 | -63.67023 | 15690 ft | 302 kts | 103° |
| 2026-04-26 13:36 | -17.74811 | -63.64899 | 15315 ft | 301 kts | 103° |
| 2026-04-26 13:37 | -17.75340 | -63.62778 | 14939 ft | 299 kts | 102° |
| 2026-04-26 13:37 | -17.75886 | -63.60676 | 14563 ft | 299 kts | 102° |
| 2026-04-26 13:37 | -17.76457 | -63.58576 | 14186 ft | 298 kts | 102° |
| 2026-04-26 13:37 | -17.77022 | -63.56488 | 13811 ft | 296 kts | 102° |
| 2026-04-26 13:38 | -17.77586 | -63.54409 | 13435 ft | 296 kts | 101° |
| 2026-04-26 13:38 | -17.78138 | -63.52339 | 13060 ft | 295 kts | 101° |
| 2026-04-26 13:38 | -17.78682 | -63.50275 | 12686 ft | 294 kts | 101° |
| 2026-04-26 13:38 | -17.79222 | -63.48210 | 12310 ft | 292 kts | 101° |
| 2026-04-26 13:39 | -17.79737 | -63.46159 | 11935 ft | 289 kts | 100° |
| 2026-04-26 13:39 | -17.80233 | -63.44121 | 11559 ft | 287 kts | 100° |
| 2026-04-26 13:39 | -17.80712 | -63.42126 | 11188 ft | 284 kts | 100° |
| 2026-04-26 13:39 | -17.81195 | -63.40094 | 10807 ft | 282 kts | 99° |
| 2026-04-26 13:40 | -17.81655 | -63.38132 | 10437 ft | 280 kts | 99° |
| 2026-04-26 13:40 | -17.82114 | -63.36160 | 10077 ft | 277 kts | 99° |
| 2026-04-26 13:40 | -17.82565 | -63.34205 | 9727 ft | 275 kts | 99° |
| 2026-04-26 13:40 | -17.83008 | -63.32262 | 9376 ft | 273 kts | 99° |
| 2026-04-26 13:41 | -17.83455 | -63.30336 | 9026 ft | 271 kts | 100° |
| 2026-04-26 13:41 | -17.83909 | -63.28418 | 8675 ft | 269 kts | 101° |
| 2026-04-26 13:41 | -17.84358 | -63.26521 | 8326 ft | 268 kts | 101° |
| 2026-04-26 13:41 | -17.84803 | -63.24628 | 7974 ft | 265 kts | 101° |
| 2026-04-26 13:42 | -17.85241 | -63.22733 | 7620 ft | 262 kts | 100° |
| 2026-04-26 13:42 | -17.85683 | -63.20900 | 7267 ft | 262 kts | 100° |
| 2026-04-26 13:42 | -17.86167 | -63.19061 | 6917 ft | 261 kts | 101° |
| 2026-04-26 13:42 | -17.86665 | -63.17230 | 6561 ft | 261 kts | 101° |
| 2026-04-26 13:43 | -17.87165 | -63.15404 | 6184 ft | 261 kts | 101° |
| 2026-04-26 13:43 | -17.87664 | -63.13587 | 5943 ft | 253 kts | 101° |
| 2026-04-26 13:43 | -17.88014 | -63.11881 | 5740 ft | 233 kts | 88° |
| 2026-04-26 13:43 | -17.87783 | -63.10283 | 5565 ft | 212 kts | 57° |
| 2026-04-26 13:44 | -17.87023 | -63.09073 | 5442 ft | 192 kts | 42° |
| 2026-04-26 13:44 | -17.86149 | -63.08029 | 5317 ft | 189 kts | 38° |
| 2026-04-26 13:44 | -17.85236 | -63.07030 | 5192 ft | 189 kts | 37° |
| 2026-04-26 13:44 | -17.84311 | -63.06046 | 5069 ft | 188 kts | 36° |
| 2026-04-26 13:45 | -17.83345 | -63.05119 | 4889 ft | 188 kts | 32° |
| 2026-04-26 13:45 | -17.82346 | -63.04245 | 4688 ft | 185 kts | 27° |
| 2026-04-26 13:45 | -17.81220 | -63.03752 | 4558 ft | 169 kts | 5° |
| 2026-04-26 13:45 | -17.80099 | -63.03640 | 4508 ft | 155 kts | 352° |
| 2026-04-26 13:46 | -17.79063 | -63.03838 | 4303 ft | 156 kts | 340° |
| 2026-04-26 13:46 | -17.78072 | -63.04310 | 4040 ft | 157 kts | 328° |
| 2026-04-26 13:46 | -17.77120 | -63.04884 | 3798 ft | 158 kts | 323° |
| 2026-04-26 13:46 | -17.76181 | -63.05461 | 3610 ft | 156 kts | 322° |
| 2026-04-26 13:47 | -17.75257 | -63.06057 | 3435 ft | 155 kts | 321° |
| 2026-04-26 13:47 | -17.74352 | -63.06671 | 3239 ft | 155 kts | 321° |
| 2026-04-26 13:47 | -17.73465 | -63.07297 | 3074 ft | 150 kts | 320° |
| 2026-04-26 13:47 | -17.72631 | -63.07888 | 2913 ft | 140 kts | 322° |
| 2026-04-26 13:48 | -17.71857 | -63.08472 | 2695 ft | 135 kts | 324° |
| 2026-04-26 13:48 | -17.71123 | -63.09056 | 2478 ft | 129 kts | 324° |
| 2026-04-26 13:48 | -17.70405 | -63.09575 | 2323 ft | 124 kts | 327° |
| 2026-04-26 13:48 | -17.69684 | -63.10060 | 2155 ft | 123 kts | 328° |
| 2026-04-26 13:49 | -17.68958 | -63.10539 | 1997 ft | 123 kts | 328° |
| 2026-04-26 13:49 | -17.68355 | -63.10941 | 1865 ft | 124 kts | 328° |
| 2026-04-26 13:49 | -17.67629 | -63.11428 | 1704 ft | 124 kts | 328° |
| 2026-04-26 13:49 | -17.66884 | -63.11931 | 1552 ft | 129 kts | 328° |
| 2026-04-26 13:50 | -17.66138 | -63.12424 | 1401 ft | 126 kts | 329° |
| 2026-04-26 13:50 | -17.65411 | -63.12910 | 1232 ft | 112 kts | 328° |
| 2026-04-26 13:50 | -17.64843 | -63.13296 | 1232 ft | 85 kts | 328° |
| 2026-04-26 13:50 | -17.64399 | -63.13592 | 1232 ft | 68 kts | 328° |
| 2026-04-26 13:51 | -17.64088 | -63.13799 | 1232 ft | 32 kts | 327° |
| 2026-04-26 13:51 | -17.63947 | -63.13895 | 1232 ft | 23 kts | 327° |
| 2026-04-26 13:51 | -17.63897 | -63.13979 | 1232 ft | 13 kts | 243° |
| 2026-04-26 13:51 | -17.63949 | -63.14065 | 1232 ft | 14 kts | 237° |
| 2026-04-26 13:52 | -17.64025 | -63.14077 | 1232 ft | 13 kts | 147° |
| 2026-04-26 13:52 | -17.64107 | -63.14023 | 1232 ft | 15 kts | 148° |
| 2026-04-26 13:52 | -17.64198 | -63.13962 | 1232 ft | 16 kts | 147° |
| 2026-04-26 13:52 | -17.64297 | -63.13895 | 1232 ft | 18 kts | 147° |
| 2026-04-26 13:53 | -17.64395 | -63.13860 | 1232 ft | 14 kts | 225° |
| 2026-04-26 13:53 | -17.64451 | -63.13946 | 1232 ft | 14 kts | 237° |
| 2026-04-26 13:53 | -17.64497 | -63.14014 | 1232 ft | 12 kts | 224° |
| 2026-04-26 13:53 | -17.64570 | -63.14005 | 1232 ft | 11 kts | 148° |
| 2026-04-26 13:54 | -17.64627 | -63.14006 | 1232 ft | 8 kts | 236° |
| 2026-04-26 13:54 | -17.64653 | -63.14047 | 1232 ft | 0 kts | 236° |